createdAt,value
2022-07-29T00:00:37.192Z,19.38
2022-07-29T00:01:37.168Z,19.40
2022-07-29T00:02:37.191Z,19.40
2022-07-29T00:03:37.181Z,19.32
2022-07-29T00:04:37.184Z,19.39
2022-07-29T00:05:37.144Z,19.23
2022-07-29T00:06:37.124Z,19.30
2022-07-29T00:07:37.109Z,19.34
2022-07-29T00:08:37.101Z,19.31
2022-07-29T00:09:50.356Z,19.28
2022-07-29T00:10:38.110Z,19.35
2022-07-29T00:11:37.074Z,19.21
2022-07-29T00:12:37.127Z,19.25
2022-07-29T00:13:37.059Z,19.31
2022-07-29T00:14:37.046Z,19.21
2022-07-29T00:15:37.075Z,19.31
2022-07-29T00:16:37.102Z,19.30
2022-07-29T00:17:37.015Z,19.30
2022-07-29T00:18:37.004Z,19.35
2022-07-29T00:19:37.003Z,19.35
2022-07-29T00:20:36.982Z,19.21
2022-07-29T00:21:36.989Z,19.13
2022-07-29T00:22:36.963Z,19.17
2022-07-29T00:23:37.061Z,19.15
2022-07-29T00:24:36.946Z,19.13
2022-07-29T00:25:36.938Z,19.20
2022-07-29T00:26:36.938Z,19.15
2022-07-29T00:27:36.918Z,19.09
2022-07-29T00:28:36.902Z,19.21
2022-07-29T00:29:36.914Z,19.13
2022-07-29T00:30:36.883Z,19.12
2022-07-29T00:31:36.962Z,19.06
2022-07-29T00:32:36.872Z,19.12
2022-07-29T00:33:36.852Z,19.15
2022-07-29T00:34:36.843Z,19.06
2022-07-29T00:35:36.830Z,19.06
2022-07-29T00:36:36.840Z,19.02
2022-07-29T00:37:36.811Z,19.12
2022-07-29T00:38:36.801Z,19.05
2022-07-29T00:39:36.789Z,19.02
2022-07-29T00:40:36.785Z,19.21
2022-07-29T00:41:36.795Z,19.16
2022-07-29T00:42:36.762Z,19.13
2022-07-29T00:43:36.753Z,19.02
2022-07-29T00:44:36.737Z,19.10
2022-07-29T00:45:36.734Z,19.02
2022-07-29T00:46:36.830Z,19.01
2022-07-29T00:47:36.716Z,18.99
2022-07-29T00:48:36.754Z,19.09
2022-07-29T00:49:37.725Z,19.07
2022-07-29T00:50:36.683Z,19.01
2022-07-29T00:51:36.668Z,19.05
2022-07-29T00:52:36.681Z,18.99
2022-07-29T00:53:36.653Z,19.06
2022-07-29T00:54:39.187Z,19.10
2022-07-29T00:55:37.635Z,18.97
2022-07-29T00:56:36.626Z,19.06
2022-07-29T00:57:36.633Z,19.06
2022-07-29T00:58:36.606Z,18.97
2022-07-29T00:59:36.603Z,19.05
2022-07-29T01:00:36.621Z,18.99
2022-07-29T01:01:36.610Z,18.96
2022-07-29T01:02:36.653Z,18.90
2022-07-29T01:03:36.555Z,19.05
2022-07-29T01:04:36.545Z,18.99
2022-07-29T01:05:50.682Z,19.01
2022-07-29T01:06:37.525Z,18.93
2022-07-29T01:07:36.532Z,18.90
2022-07-29T01:08:36.505Z,18.94
2022-07-29T01:09:45.390Z,18.87
2022-07-29T01:10:37.484Z,18.84
2022-07-29T01:11:36.475Z,18.82
2022-07-29T01:12:36.479Z,18.93
2022-07-29T01:13:36.450Z,18.93
2022-07-29T01:14:36.445Z,18.91
2022-07-29T01:15:36.438Z,18.99
2022-07-29T01:16:36.538Z,18.90
2022-07-29T01:17:36.431Z,18.84
2022-07-29T01:18:36.404Z,18.90
2022-07-29T01:19:36.393Z,18.89
2022-07-29T01:20:36.384Z,18.89
2022-07-29T01:21:36.370Z,18.78
2022-07-29T01:22:36.405Z,18.82
2022-07-29T01:23:36.353Z,18.84
2022-07-29T01:24:36.344Z,18.83
2022-07-29T01:25:36.329Z,18.79
2022-07-29T01:26:36.321Z,18.90
2022-07-29T01:27:36.314Z,18.91
2022-07-29T01:28:36.323Z,18.87
2022-07-29T01:29:39.025Z,18.96
2022-07-29T01:30:36.286Z,18.90
2022-07-29T01:31:36.618Z,18.93
2022-07-29T01:32:37.269Z,18.97
2022-07-29T01:33:36.268Z,18.94
2022-07-29T01:34:36.244Z,18.89
2022-07-29T01:35:36.235Z,18.78
2022-07-29T01:36:36.226Z,18.82
2022-07-29T01:37:36.215Z,18.76
2022-07-29T01:38:36.222Z,18.84
2022-07-29T01:39:36.200Z,18.78
2022-07-29T01:40:36.183Z,18.78
2022-07-29T01:41:36.175Z,18.74
2022-07-29T01:42:36.163Z,18.68
2022-07-29T01:43:36.179Z,18.72
2022-07-29T01:44:36.145Z,18.71
2022-07-29T01:45:36.135Z,18.76
2022-07-29T01:46:36.222Z,18.74
2022-07-29T01:47:36.116Z,18.72
2022-07-29T01:48:36.186Z,18.74
2022-07-29T01:49:36.095Z,18.74
2022-07-29T01:50:36.089Z,18.69
2022-07-29T01:51:36.076Z,18.71
2022-07-29T01:52:36.067Z,18.76
2022-07-29T01:53:38.050Z,18.71
2022-07-29T01:54:36.042Z,18.66
2022-07-29T01:55:36.035Z,18.59
2022-07-29T01:56:36.027Z,18.59
2022-07-29T01:57:36.020Z,18.64
2022-07-29T01:58:36.002Z,18.64
2022-07-29T01:59:36.014Z,18.66
2022-07-29T02:00:35.988Z,18.74
2022-07-29T02:01:36.034Z,18.66
2022-07-29T02:02:35.964Z,18.54
2022-07-29T02:03:35.949Z,18.54
2022-07-29T02:04:36.018Z,18.56
2022-07-29T02:05:35.934Z,18.59
2022-07-29T02:06:35.923Z,18.65
2022-07-29T02:07:35.902Z,18.62
2022-07-29T02:08:35.905Z,18.64
2022-07-29T02:09:35.912Z,18.56
2022-07-29T02:10:35.885Z,18.60
2022-07-29T02:11:35.879Z,18.53
2022-07-29T02:12:35.866Z,18.59
2022-07-29T02:13:35.857Z,18.41
2022-07-29T02:14:35.885Z,18.47
2022-07-29T02:15:35.836Z,18.51
2022-07-29T02:16:35.883Z,18.35
2022-07-29T02:17:35.823Z,18.34
2022-07-29T02:18:35.809Z,18.46
2022-07-29T02:19:35.833Z,18.47
2022-07-29T02:20:35.789Z,18.56
2022-07-29T02:21:35.773Z,18.51
2022-07-29T02:22:35.770Z,18.54
2022-07-29T02:23:51.577Z,18.39
2022-07-29T02:24:36.786Z,18.51
2022-07-29T02:25:37.657Z,18.50
2022-07-29T02:26:35.727Z,18.46
2022-07-29T02:27:35.723Z,18.51
2022-07-29T02:28:35.711Z,18.44
2022-07-29T02:29:35.702Z,18.44
2022-07-29T02:30:35.708Z,18.44
2022-07-29T02:31:35.826Z,18.38
2022-07-29T02:32:35.673Z,18.32
2022-07-29T02:33:35.663Z,18.41
2022-07-29T02:34:35.652Z,18.35
2022-07-29T02:35:35.663Z,18.20
2022-07-29T02:36:35.634Z,18.25
2022-07-29T02:37:35.628Z,18.20
2022-07-29T02:38:35.618Z,18.13
2022-07-29T02:39:35.605Z,18.11
2022-07-29T02:40:35.614Z,18.10
2022-07-29T02:41:35.586Z,18.11
2022-07-29T02:42:35.573Z,18.17
2022-07-29T02:43:35.568Z,18.04
2022-07-29T02:44:35.558Z,18.07
2022-07-29T02:45:35.562Z,17.87
2022-07-29T02:46:35.561Z,17.84
2022-07-29T02:47:42.194Z,17.80
2022-07-29T02:48:36.532Z,17.76
2022-07-29T02:49:35.510Z,17.80
2022-07-29T02:50:35.517Z,17.79
2022-07-29T02:51:41.101Z,17.83
2022-07-29T02:52:36.475Z,17.84
2022-07-29T02:53:35.487Z,17.84
2022-07-29T02:54:35.462Z,17.92
2022-07-29T02:55:35.469Z,17.91
2022-07-29T02:56:35.439Z,17.91
2022-07-29T02:57:35.440Z,17.96
2022-07-29T02:58:36.421Z,17.86
2022-07-29T02:59:35.416Z,17.98
2022-07-29T03:00:35.419Z,18.02
2022-07-29T03:01:35.410Z,17.91
2022-07-29T03:02:35.379Z,17.95
2022-07-29T03:03:35.374Z,17.83
2022-07-29T03:04:35.431Z,17.96
2022-07-29T03:05:35.368Z,17.79
2022-07-29T03:06:38.313Z,17.80
2022-07-29T03:07:35.340Z,17.77
2022-07-29T03:08:35.329Z,17.83
2022-07-29T03:09:35.316Z,17.89
2022-07-29T03:10:35.325Z,17.83
2022-07-29T03:11:42.498Z,17.80
2022-07-29T03:12:36.292Z,17.76
2022-07-29T03:13:35.280Z,17.81
2022-07-29T03:14:35.271Z,17.74
2022-07-29T03:15:35.373Z,17.73
2022-07-29T03:16:39.414Z,17.73
2022-07-29T03:17:37.242Z,17.83
2022-07-29T03:18:35.232Z,17.76
2022-07-29T03:19:35.222Z,17.81
2022-07-29T03:20:35.226Z,17.80
2022-07-29T03:21:35.204Z,17.83
2022-07-29T03:22:35.197Z,17.77
2022-07-29T03:23:37.026Z,17.73
2022-07-29T03:24:35.177Z,17.83
2022-07-29T03:25:35.183Z,17.74
2022-07-29T03:26:35.154Z,17.73
2022-07-29T03:27:35.143Z,17.79
2022-07-29T03:28:35.135Z,17.76
2022-07-29T03:29:35.123Z,17.74
2022-07-29T03:30:35.128Z,17.80
2022-07-29T03:31:35.131Z,17.80
2022-07-29T03:32:35.095Z,17.79
2022-07-29T03:33:35.084Z,17.76
2022-07-29T03:34:35.089Z,17.77
2022-07-29T03:35:35.070Z,17.81
2022-07-29T03:36:36.056Z,17.76
2022-07-29T03:37:35.045Z,17.79
2022-07-29T03:38:35.036Z,17.80
2022-07-29T03:39:35.026Z,17.77
2022-07-29T03:40:35.053Z,17.86
2022-07-29T03:41:35.013Z,17.77
2022-07-29T03:42:34.997Z,17.80
2022-07-29T03:43:34.987Z,17.89
2022-07-29T03:44:34.978Z,17.81
2022-07-29T03:45:35.003Z,17.98
2022-07-29T03:46:35.050Z,17.84
2022-07-29T03:47:48.006Z,17.94
2022-07-29T03:48:36.048Z,17.84
2022-07-29T03:49:34.931Z,17.81
2022-07-29T03:50:34.933Z,17.76
2022-07-29T03:51:34.905Z,17.81
2022-07-29T03:52:34.898Z,17.94
2022-07-29T03:53:34.884Z,17.98
2022-07-29T03:54:34.877Z,18.09
2022-07-29T03:55:34.878Z,18.16
2022-07-29T03:56:34.856Z,18.17
2022-07-29T03:57:34.837Z,18.25
2022-07-29T03:58:34.837Z,18.25
2022-07-29T03:59:34.826Z,18.23
2022-07-29T04:00:34.831Z,18.38
2022-07-29T04:01:34.893Z,18.34
2022-07-29T04:02:34.795Z,18.34
2022-07-29T04:03:34.804Z,18.34
2022-07-29T04:04:34.772Z,18.38
2022-07-29T04:05:34.780Z,18.38
2022-07-29T04:06:34.757Z,18.59
2022-07-29T04:07:34.742Z,18.46
2022-07-29T04:08:34.732Z,18.42
2022-07-29T04:09:34.727Z,18.39
2022-07-29T04:10:35.818Z,18.42
2022-07-29T04:11:34.705Z,18.41
2022-07-29T04:12:35.695Z,18.32
2022-07-29T04:13:34.687Z,18.28
2022-07-29T04:14:34.683Z,18.26
2022-07-29T04:15:34.742Z,18.36
2022-07-29T04:16:34.691Z,18.41
2022-07-29T04:17:35.647Z,18.38
2022-07-29T04:18:34.634Z,18.36
2022-07-29T04:19:34.625Z,18.34
2022-07-29T04:20:34.653Z,18.32
2022-07-29T04:21:34.605Z,18.36
2022-07-29T04:22:34.597Z,18.46
2022-07-29T04:23:34.581Z,18.44
2022-07-29T04:24:34.575Z,18.53
2022-07-29T04:25:34.602Z,18.38
2022-07-29T04:26:34.567Z,18.23
2022-07-29T04:27:34.549Z,18.09
2022-07-29T04:28:34.540Z,18.02
2022-07-29T04:29:34.530Z,18.16
2022-07-29T04:30:34.521Z,18.05
2022-07-29T04:31:34.602Z,18.13
2022-07-29T04:32:34.504Z,18.21
2022-07-29T04:33:34.493Z,18.14
2022-07-29T04:34:34.483Z,18.13
2022-07-29T04:35:36.756Z,18.20
2022-07-29T04:36:34.479Z,18.23
2022-07-29T04:37:34.452Z,18.34
2022-07-29T04:38:34.444Z,18.41
2022-07-29T04:39:34.436Z,18.42
2022-07-29T04:40:34.430Z,18.53
2022-07-29T04:41:34.534Z,18.49
2022-07-29T04:42:34.420Z,18.54
2022-07-29T04:43:36.960Z,18.47
2022-07-29T04:44:37.235Z,18.38
2022-07-29T04:45:35.377Z,18.34
2022-07-29T04:46:34.471Z,18.36
2022-07-29T04:47:34.359Z,18.34
2022-07-29T04:48:34.354Z,18.25
2022-07-29T04:49:34.339Z,18.25
2022-07-29T04:50:34.326Z,18.20
2022-07-29T04:51:34.334Z,18.14
2022-07-29T04:52:34.308Z,18.09
2022-07-29T04:53:34.297Z,18.02
2022-07-29T04:54:34.285Z,17.98
2022-07-29T04:55:34.276Z,18.07
2022-07-29T04:56:34.278Z,18.02
2022-07-29T04:57:34.261Z,18.02
2022-07-29T04:58:34.273Z,18.07
2022-07-29T04:59:34.233Z,18.01
2022-07-29T05:00:34.227Z,18.09
2022-07-29T05:01:34.336Z,18.07
2022-07-29T05:02:34.290Z,17.99
2022-07-29T05:03:34.196Z,17.92
2022-07-29T05:04:34.189Z,18.05
2022-07-29T05:05:34.180Z,17.98
2022-07-29T05:06:34.194Z,17.99
2022-07-29T05:07:34.162Z,17.91
2022-07-29T05:08:34.143Z,17.99
2022-07-29T05:09:34.137Z,17.91
2022-07-29T05:10:34.134Z,17.95
2022-07-29T05:11:34.116Z,17.94
2022-07-29T05:12:34.117Z,17.83
2022-07-29T05:13:46.408Z,17.91
2022-07-29T05:14:35.091Z,17.84
2022-07-29T05:15:34.100Z,17.83
2022-07-29T05:16:34.073Z,17.87
2022-07-29T05:17:34.078Z,17.98
2022-07-29T05:18:34.056Z,18.02
2022-07-29T05:19:34.043Z,18.07
2022-07-29T05:20:35.029Z,18.04
2022-07-29T05:21:34.024Z,17.96
2022-07-29T05:22:34.034Z,18.04
2022-07-29T05:23:34.008Z,18.14
2022-07-29T05:24:34.001Z,17.96
2022-07-29T05:25:43.896Z,17.92
2022-07-29T05:26:34.977Z,18.04
2022-07-29T05:27:33.984Z,18.01
2022-07-29T05:28:33.957Z,18.01
2022-07-29T05:29:43.095Z,18.10
2022-07-29T05:30:34.952Z,18.05
2022-07-29T05:31:33.944Z,17.92
2022-07-29T05:32:33.934Z,17.89
2022-07-29T05:33:35.176Z,17.95
2022-07-29T05:34:33.895Z,18.09
2022-07-29T05:35:33.884Z,18.02
2022-07-29T05:36:33.875Z,17.98
2022-07-29T05:37:33.899Z,17.92
2022-07-29T05:38:33.864Z,17.91
2022-07-29T05:39:48.424Z,17.73
2022-07-29T05:40:34.831Z,17.73
2022-07-29T05:41:33.829Z,17.77
2022-07-29T05:42:33.814Z,17.74
2022-07-29T05:43:33.826Z,17.71
2022-07-29T05:44:33.793Z,17.58
2022-07-29T05:45:33.787Z,17.66
2022-07-29T05:46:34.801Z,17.68
2022-07-29T05:47:33.765Z,17.71
2022-07-29T05:48:33.798Z,17.79
2022-07-29T05:49:33.799Z,17.92
2022-07-29T05:50:33.739Z,17.86
2022-07-29T05:51:33.724Z,17.99
2022-07-29T05:52:33.721Z,18.09
2022-07-29T05:53:33.728Z,18.02
2022-07-29T05:54:33.704Z,17.96
2022-07-29T05:55:33.691Z,17.83
2022-07-29T05:56:33.678Z,17.96
2022-07-29T05:57:33.679Z,17.96
2022-07-29T05:58:33.674Z,17.86
2022-07-29T05:59:33.644Z,17.87
2022-07-29T06:00:33.638Z,17.96
2022-07-29T06:01:33.702Z,17.96
2022-07-29T06:02:33.620Z,17.99
2022-07-29T06:03:33.630Z,17.99
2022-07-29T06:04:33.664Z,18.19
2022-07-29T06:05:33.590Z,18.14
2022-07-29T06:06:33.583Z,18.17
2022-07-29T06:07:33.884Z,18.19
2022-07-29T06:08:33.604Z,18.20
2022-07-29T06:09:36.227Z,18.14
2022-07-29T06:10:34.542Z,18.14
2022-07-29T06:11:33.530Z,18.20
2022-07-29T06:12:33.526Z,18.25
2022-07-29T06:13:33.549Z,18.21
2022-07-29T06:14:33.499Z,18.36
2022-07-29T06:15:33.580Z,18.42
2022-07-29T06:16:33.512Z,18.44
2022-07-29T06:17:33.469Z,18.31
2022-07-29T06:18:33.457Z,18.34
2022-07-29T06:19:33.460Z,18.25
2022-07-29T06:20:33.441Z,18.41
2022-07-29T06:21:33.423Z,18.39
2022-07-29T06:22:33.425Z,18.46
2022-07-29T06:23:33.405Z,18.44
2022-07-29T06:24:33.410Z,18.51
2022-07-29T06:25:33.389Z,18.44
2022-07-29T06:26:36.514Z,18.53
2022-07-29T06:27:35.363Z,18.29
2022-07-29T06:28:33.395Z,18.34
2022-07-29T06:29:33.358Z,18.31
2022-07-29T06:30:33.433Z,18.16
2022-07-29T06:31:33.323Z,18.02
2022-07-29T06:32:33.317Z,18.07
2022-07-29T06:33:33.300Z,18.13
2022-07-29T06:34:33.350Z,18.09
2022-07-29T06:35:38.536Z,18.04
2022-07-29T06:36:35.272Z,18.21
2022-07-29T06:37:33.256Z,18.31
2022-07-29T06:38:34.477Z,18.29
2022-07-29T06:39:34.265Z,18.28
2022-07-29T06:40:33.232Z,18.31
2022-07-29T06:41:33.224Z,18.29
2022-07-29T06:42:33.219Z,18.26
2022-07-29T06:43:33.206Z,18.19
2022-07-29T06:44:33.194Z,18.16
2022-07-29T06:45:33.205Z,18.09
2022-07-29T06:46:33.419Z,18.14
2022-07-29T06:47:33.163Z,18.34
2022-07-29T06:48:33.153Z,18.49
2022-07-29T06:49:33.194Z,18.56
2022-07-29T06:50:33.145Z,18.62
2022-07-29T06:51:34.125Z,18.74
2022-07-29T06:52:33.111Z,18.75
2022-07-29T06:53:33.122Z,18.91
2022-07-29T06:54:33.089Z,18.96
2022-07-29T06:55:33.114Z,19.10
2022-07-29T06:56:38.453Z,19.12
2022-07-29T06:57:34.062Z,19.16
2022-07-29T06:58:33.054Z,19.28
2022-07-29T06:59:35.795Z,19.24
2022-07-29T07:00:34.049Z,19.30
2022-07-29T07:01:33.099Z,19.25
2022-07-29T07:02:33.028Z,19.35
2022-07-29T07:03:33.000Z,19.31
2022-07-29T07:04:33.003Z,19.35
2022-07-29T07:05:33.033Z,19.21
2022-07-29T07:06:32.979Z,19.24
2022-07-29T07:07:32.959Z,19.25
2022-07-29T07:08:32.949Z,19.28
2022-07-29T07:09:40.170Z,19.31
2022-07-29T07:10:33.973Z,19.28
2022-07-29T07:11:32.925Z,19.23
2022-07-29T07:12:32.910Z,19.27
2022-07-29T07:13:32.935Z,19.21
2022-07-29T07:14:32.895Z,19.25
2022-07-29T07:15:39.252Z,19.24
2022-07-29T07:16:33.933Z,19.31
2022-07-29T07:17:32.864Z,19.27
2022-07-29T07:18:32.853Z,19.28
2022-07-29T07:19:32.843Z,19.17
2022-07-29T07:20:32.838Z,19.27
2022-07-29T07:21:32.846Z,19.25
2022-07-29T07:22:38.387Z,19.24
2022-07-29T07:23:34.808Z,19.27
2022-07-29T07:24:32.817Z,19.21
2022-07-29T07:25:32.787Z,19.17
2022-07-29T07:26:32.801Z,19.15
2022-07-29T07:27:32.772Z,19.06
2022-07-29T07:28:32.765Z,19.05
2022-07-29T07:29:32.747Z,19.10
2022-07-29T07:30:32.742Z,18.93
2022-07-29T07:31:32.846Z,18.93
2022-07-29T07:32:32.720Z,18.93
2022-07-29T07:33:32.710Z,18.86
2022-07-29T07:34:32.699Z,18.83
2022-07-29T07:35:32.699Z,18.76
2022-07-29T07:36:32.734Z,18.69
2022-07-29T07:37:32.672Z,18.72
2022-07-29T07:38:32.661Z,18.78
2022-07-29T07:39:32.671Z,18.62
2022-07-29T07:40:32.639Z,18.66
2022-07-29T07:41:32.737Z,18.69
2022-07-29T07:42:32.636Z,18.59
2022-07-29T07:43:32.613Z,18.56
2022-07-29T07:44:32.602Z,18.62
2022-07-29T07:45:32.658Z,18.54
2022-07-29T07:46:32.593Z,18.60
2022-07-29T07:47:32.592Z,18.46
2022-07-29T07:48:32.564Z,18.42
2022-07-29T07:49:32.557Z,18.01
2022-07-29T07:50:32.541Z,17.96
2022-07-29T07:51:32.528Z,18.04
2022-07-29T07:52:32.577Z,18.09
2022-07-29T07:53:32.694Z,18.04
2022-07-29T07:54:32.524Z,17.99
2022-07-29T07:55:47.483Z,17.94
2022-07-29T07:56:35.379Z,18.10
2022-07-29T07:57:33.513Z,17.98
2022-07-29T07:58:32.496Z,18.07
2022-07-29T07:59:32.454Z,18.10
2022-07-29T08:00:32.444Z,18.07
2022-07-29T08:01:55.127Z,17.96
2022-07-29T08:02:33.500Z,17.98
2022-07-29T08:03:32.414Z,17.79
2022-07-29T08:04:32.404Z,17.74
2022-07-29T08:05:32.395Z,17.74
2022-07-29T08:06:32.384Z,17.65
2022-07-29T08:07:32.375Z,17.66
2022-07-29T08:08:32.382Z,17.65
2022-07-29T08:09:32.352Z,17.42
2022-07-29T08:10:32.345Z,17.38
2022-07-29T08:11:33.422Z,17.51
2022-07-29T08:12:33.327Z,17.58
2022-07-29T08:13:32.332Z,17.60
2022-07-29T08:14:32.311Z,17.32
2022-07-29T08:15:32.295Z,17.03
2022-07-29T08:16:32.326Z,16.75
2022-07-29T08:17:32.281Z,16.72
2022-07-29T08:18:32.281Z,16.88
2022-07-29T08:19:32.259Z,16.88
2022-07-29T08:20:32.247Z,16.99
2022-07-29T08:21:32.237Z,17.05
2022-07-29T08:22:32.224Z,17.06
2022-07-29T08:23:46.115Z,17.00
2022-07-29T08:24:34.255Z,17.00
2022-07-29T08:25:32.194Z,16.98
2022-07-29T08:26:32.185Z,16.78
2022-07-29T08:27:45.500Z,16.82
2022-07-29T08:28:34.198Z,16.65
2022-07-29T08:29:32.171Z,16.67
2022-07-29T08:30:32.149Z,16.60
2022-07-29T08:31:32.161Z,16.62
2022-07-29T08:32:52.454Z,16.47
2022-07-29T08:33:34.203Z,16.51
2022-07-29T08:34:33.111Z,16.67
2022-07-29T08:35:35.577Z,16.77
2022-07-29T08:36:33.088Z,16.87
2022-07-29T08:37:32.082Z,16.88
2022-07-29T08:38:32.065Z,16.98
2022-07-29T08:39:32.071Z,17.02
2022-07-29T08:40:32.691Z,17.05
2022-07-29T08:41:32.041Z,17.15
2022-07-29T08:42:32.029Z,17.28
2022-07-29T08:43:32.029Z,17.38
2022-07-29T08:44:32.049Z,17.36
2022-07-29T08:45:32.048Z,17.54
2022-07-29T08:46:31.988Z,17.68
2022-07-29T08:47:31.987Z,17.74
2022-07-29T08:48:31.966Z,17.87
2022-07-29T08:49:31.972Z,17.94
2022-07-29T08:50:31.951Z,18.10
2022-07-29T08:51:31.944Z,18.31
2022-07-29T08:52:31.931Z,18.36
2022-07-29T08:53:31.924Z,18.59
2022-07-29T08:54:31.953Z,18.66
2022-07-29T08:55:31.907Z,18.71
2022-07-29T08:56:31.892Z,18.91
2022-07-29T08:57:31.885Z,19.06
2022-07-29T08:58:31.877Z,19.17
2022-07-29T08:59:31.872Z,19.25
2022-07-29T09:00:31.875Z,19.43
2022-07-29T09:01:35.605Z,19.61
2022-07-29T09:02:32.835Z,19.65
2022-07-29T09:03:31.903Z,19.82
2022-07-29T09:04:31.819Z,19.72
2022-07-29T09:05:31.831Z,19.24
2022-07-29T09:06:31.815Z,19.25
2022-07-29T09:07:33.034Z,19.50
2022-07-29T09:08:31.776Z,19.58
2022-07-29T09:09:31.783Z,19.78
2022-07-29T09:10:31.783Z,19.90
2022-07-29T09:11:31.756Z,19.75
2022-07-29T09:12:36.105Z,19.55
2022-07-29T09:13:33.740Z,19.49
2022-07-29T09:14:31.722Z,19.45
2022-07-29T09:15:31.723Z,19.09
2022-07-29T09:16:51.817Z,19.09
2022-07-29T09:17:33.730Z,19.06
2022-07-29T09:18:31.746Z,18.87
2022-07-29T09:19:31.668Z,18.96
2022-07-29T09:20:31.705Z,19.15
2022-07-29T09:21:31.676Z,19.25
2022-07-29T09:22:31.646Z,19.09
2022-07-29T09:23:31.636Z,19.20
2022-07-29T09:24:31.629Z,19.20
2022-07-29T09:25:31.657Z,19.50
2022-07-29T09:26:31.620Z,19.70
2022-07-29T09:27:31.602Z,19.79
2022-07-29T09:28:31.590Z,19.58
2022-07-29T09:29:35.832Z,19.39
2022-07-29T09:30:32.638Z,19.49
2022-07-29T09:31:31.632Z,19.28
2022-07-29T09:32:31.552Z,19.31
2022-07-29T09:33:31.553Z,19.46
2022-07-29T09:34:31.531Z,19.78
2022-07-29T09:35:31.526Z,19.80
2022-07-29T09:36:31.541Z,19.61
2022-07-29T09:37:31.507Z,19.64
2022-07-29T09:38:31.496Z,19.82
2022-07-29T09:39:31.479Z,19.97
2022-07-29T09:40:31.481Z,20.19
2022-07-29T09:41:31.478Z,20.16
2022-07-29T09:42:31.453Z,20.10
2022-07-29T09:43:31.442Z,20.04
2022-07-29T09:44:31.433Z,20.10
2022-07-29T09:45:31.418Z,20.02
2022-07-29T09:46:31.459Z,20.15
2022-07-29T09:47:31.400Z,20.50
2022-07-29T09:48:31.389Z,20.40
2022-07-29T09:49:31.377Z,20.25
2022-07-29T09:50:31.367Z,20.42
2022-07-29T09:51:38.111Z,20.66
2022-07-29T09:52:32.365Z,20.88
2022-07-29T09:53:31.349Z,21.09
2022-07-29T09:54:31.358Z,21.27
2022-07-29T09:55:31.318Z,21.16
2022-07-29T09:56:31.345Z,21.09
2022-07-29T09:57:31.496Z,20.93
2022-07-29T09:58:31.286Z,20.63
2022-07-29T09:59:31.274Z,20.56
2022-07-29T10:00:31.314Z,20.60
2022-07-29T10:01:31.261Z,20.71
2022-07-29T10:02:31.265Z,20.82
2022-07-29T10:03:31.348Z,20.82
2022-07-29T10:04:31.224Z,20.93
2022-07-29T10:05:36.897Z,20.76
2022-07-29T10:06:32.209Z,20.69
2022-07-29T10:07:31.215Z,20.76
2022-07-29T10:08:31.186Z,20.64
2022-07-29T10:09:31.175Z,20.73
2022-07-29T10:10:31.165Z,20.75
2022-07-29T10:11:49.103Z,20.85
2022-07-29T10:12:32.166Z,20.85
2022-07-29T10:13:31.137Z,20.90
2022-07-29T10:14:31.124Z,21.00
2022-07-29T10:15:31.118Z,21.11
2022-07-29T10:16:31.241Z,21.18
2022-07-29T10:17:31.119Z,21.31
2022-07-29T10:18:31.103Z,21.63
2022-07-29T10:19:31.087Z,21.83
2022-07-29T10:20:31.067Z,21.96
2022-07-29T10:21:36.115Z,22.01
2022-07-29T10:22:52.411Z,22.05
2022-07-29T10:23:46.963Z,22.12
2022-07-29T10:24:32.027Z,22.21
2022-07-29T10:25:31.014Z,22.21
2022-07-29T10:26:31.032Z,22.23
2022-07-29T10:27:33.030Z,21.94
2022-07-29T10:28:30.984Z,21.96
2022-07-29T10:29:30.979Z,21.96
2022-07-29T10:30:30.966Z,22.26
2022-07-29T10:31:31.130Z,22.79
2022-07-29T10:32:30.950Z,23.26
2022-07-29T10:33:30.955Z,23.52
2022-07-29T10:34:30.928Z,23.62
2022-07-29T10:35:30.913Z,23.81
2022-07-29T10:36:30.899Z,24.12
2022-07-29T10:37:36.104Z,24.06
2022-07-29T10:38:31.930Z,24.08
2022-07-29T10:39:41.732Z,24.46
2022-07-29T10:40:31.868Z,24.24
2022-07-29T10:41:36.366Z,24.05
2022-07-29T10:42:34.612Z,24.02
2022-07-29T10:43:31.921Z,24.11
2022-07-29T10:44:30.830Z,23.94
2022-07-29T10:45:30.817Z,23.96
2022-07-29T10:46:30.914Z,24.11
2022-07-29T10:47:30.788Z,24.15
2022-07-29T10:48:31.830Z,24.34
2022-07-29T10:49:31.265Z,24.67
2022-07-29T10:50:30.773Z,24.92
2022-07-29T10:51:30.762Z,25.07
2022-07-29T10:52:30.748Z,25.29
2022-07-29T10:53:33.817Z,26.09
2022-07-29T10:54:30.735Z,26.19
2022-07-29T10:55:31.720Z,26.09
2022-07-29T10:56:30.725Z,26.20
2022-07-29T10:57:53.859Z,26.29
2022-07-29T10:58:31.690Z,26.65
2022-07-29T10:59:32.365Z,26.91
2022-07-29T11:00:31.672Z,26.81
2022-07-29T11:01:37.701Z,26.60
2022-07-29T11:02:42.117Z,26.01
2022-07-29T11:03:32.699Z,25.93
2022-07-29T11:04:30.645Z,26.00
2022-07-29T11:05:32.243Z,25.59
2022-07-29T11:06:31.615Z,25.19
2022-07-29T11:07:45.678Z,25.31
2022-07-29T11:08:31.589Z,25.56
2022-07-29T11:09:37.699Z,25.30
2022-07-29T11:10:31.974Z,24.92
2022-07-29T11:11:30.569Z,24.36
2022-07-29T11:12:30.556Z,24.19
2022-07-29T11:13:30.544Z,24.09
2022-07-29T11:14:31.557Z,24.16
2022-07-29T11:15:31.614Z,24.08
2022-07-29T11:16:30.514Z,24.19
2022-07-29T11:17:37.601Z,24.59
2022-07-29T11:18:31.501Z,24.71
2022-07-29T11:19:30.993Z,24.06
2022-07-29T11:20:30.496Z,23.99
2022-07-29T11:21:48.909Z,23.97
2022-07-29T11:22:31.464Z,24.23
2022-07-29T11:23:33.316Z,24.83
2022-07-29T11:24:30.540Z,25.20
2022-07-29T11:25:50.949Z,24.83
2022-07-29T11:26:31.424Z,24.61
2022-07-29T11:27:30.418Z,25.26
2022-07-29T11:28:30.411Z,25.67
2022-07-29T11:29:30.405Z,26.23
2022-07-29T11:30:30.430Z,26.79
2022-07-29T11:31:30.377Z,27.01
2022-07-29T11:32:30.368Z,27.30
2022-07-29T11:33:54.208Z,27.15
2022-07-29T11:34:31.353Z,27.31
2022-07-29T11:35:38.556Z,27.80
2022-07-29T11:36:31.347Z,28.18
2022-07-29T11:37:30.322Z,28.02
2022-07-29T11:38:31.942Z,27.78
2022-07-29T11:39:37.229Z,27.69
2022-07-29T11:40:31.299Z,27.84
2022-07-29T11:41:30.300Z,27.88
2022-07-29T11:42:34.251Z,27.71
2022-07-29T11:43:30.267Z,26.98
2022-07-29T11:44:30.259Z,26.44
2022-07-29T11:45:42.535Z,26.32
2022-07-29T11:46:31.308Z,26.47
2022-07-29T11:47:30.285Z,26.83
2022-07-29T11:48:32.352Z,25.79
2022-07-29T11:49:32.275Z,25.90
2022-07-29T11:50:30.228Z,25.78
2022-07-29T11:51:32.737Z,25.42
2022-07-29T11:52:30.187Z,25.26
2022-07-29T11:53:32.560Z,24.99
2022-07-29T11:54:30.166Z,25.01
2022-07-29T11:55:32.270Z,24.80
2022-07-29T11:56:30.148Z,25.22
2022-07-29T11:57:37.246Z,25.41
2022-07-29T11:58:31.129Z,25.69
2022-07-29T11:59:32.897Z,26.53
2022-07-29T12:00:30.112Z,27.03
2022-07-29T12:01:30.104Z,27.39
2022-07-29T12:02:38.277Z,27.18
2022-07-29T12:03:35.268Z,27.45
2022-07-29T12:04:30.072Z,27.49
2022-07-29T12:05:36.865Z,27.46
2022-07-29T12:06:31.051Z,27.25
2022-07-29T12:07:33.848Z,26.97
2022-07-29T12:08:31.044Z,27.23
2022-07-29T12:09:30.049Z,27.72
2022-07-29T12:10:31.075Z,27.95
2022-07-29T12:11:30.005Z,27.86
2022-07-29T12:12:29.997Z,27.78
2022-07-29T12:13:37.140Z,27.52
2022-07-29T12:14:31.014Z,27.40
2022-07-29T12:15:39.224Z,27.16
2022-07-29T12:16:31.027Z,27.11
2022-07-29T12:17:30.533Z,26.87
2022-07-29T12:18:29.959Z,27.08
2022-07-29T12:19:29.947Z,26.84
2022-07-29T12:20:29.919Z,26.60
2022-07-29T12:21:29.916Z,26.84
2022-07-29T12:22:29.914Z,26.54
2022-07-29T12:23:34.730Z,27.13
2022-07-29T12:24:30.883Z,27.20
2022-07-29T12:25:33.841Z,27.08
2022-07-29T12:26:30.868Z,27.40
2022-07-29T12:27:29.855Z,27.74
2022-07-29T12:28:29.888Z,27.71
2022-07-29T12:29:34.516Z,27.40
2022-07-29T12:30:30.833Z,27.76
2022-07-29T12:31:44.121Z,27.53
2022-07-29T12:32:30.854Z,27.40
2022-07-29T12:33:29.830Z,27.34
2022-07-29T12:34:29.793Z,27.12
2022-07-29T12:35:29.783Z,27.01
2022-07-29T12:36:29.773Z,27.09
2022-07-29T12:37:38.977Z,27.24
2022-07-29T12:38:30.783Z,27.02
2022-07-29T12:39:29.748Z,27.03
2022-07-29T12:40:29.746Z,27.15
2022-07-29T12:41:29.726Z,27.03
2022-07-29T12:42:29.715Z,26.84
2022-07-29T12:43:29.717Z,26.56
2022-07-29T12:44:29.716Z,26.47
2022-07-29T12:45:29.685Z,26.36
2022-07-29T12:46:29.744Z,26.32
2022-07-29T12:47:29.671Z,26.38
2022-07-29T12:48:29.661Z,26.39
2022-07-29T12:49:29.754Z,26.39
2022-07-29T12:50:30.637Z,26.76
2022-07-29T12:51:29.632Z,27.05
2022-07-29T12:52:29.621Z,26.94